sensor_id;sensor_type;location;lat;lon;timestamp;P1;durP1;ratioP1;P2;durP2;ratioP2
64110;SDS011;50401;48.188;11.566;2023-07-22T00:01:32;8.40;;;3.45;;
64110;SDS011;50401;48.188;11.566;2023-07-22T00:03:58;7.60;;;3.90;;
64110;SDS011;50401;48.188;11.566;2023-07-22T00:06:23;7.30;;;3.78;;
64110;SDS011;50401;48.188;11.566;2023-07-22T00:08:49;10.10;;;3.58;;
64110;SDS011;50401;48.188;11.566;2023-07-22T00:11:15;11.10;;;3.88;;
64110;SDS011;50401;48.188;11.566;2023-07-22T00:13:41;9.75;;;4.25;;
64110;SDS011;50401;48.188;11.566;2023-07-22T00:16:09;10.90;;;4.55;;
64110;SDS011;50401;48.188;11.566;2023-07-22T00:18:36;11.38;;;4.55;;
64110;SDS011;50401;48.188;11.566;2023-07-22T00:21:01;11.57;;;4.32;;
64110;SDS011;50401;48.188;11.566;2023-07-22T00:23:32;5.60;;;3.78;;
64110;SDS011;50401;48.188;11.566;2023-07-22T00:25:58;11.32;;;5.20;;
64110;SDS011;50401;48.188;11.566;2023-07-22T00:28:34;13.45;;;6.25;;
64110;SDS011;50401;48.188;11.566;2023-07-22T00:31:02;18.48;;;6.80;;
64110;SDS011;50401;48.188;11.566;2023-07-22T00:33:29;13.98;;;6.30;;
64110;SDS011;50401;48.188;11.566;2023-07-22T00:35:54;8.77;;;5.03;;
64110;SDS011;50401;48.188;11.566;2023-07-22T00:38:20;7.22;;;4.07;;
64110;SDS011;50401;48.188;11.566;2023-07-22T00:40:46;15.23;;;5.65;;
64110;SDS011;50401;48.188;11.566;2023-07-22T00:43:11;13.77;;;5.00;;
64110;SDS011;50401;48.188;11.566;2023-07-22T00:45:37;14.95;;;4.53;;
64110;SDS011;50401;48.188;11.566;2023-07-22T00:48:02;9.95;;;4.65;;
64110;SDS011;50401;48.188;11.566;2023-07-22T00:50:30;8.27;;;5.07;;
64110;SDS011;50401;48.188;11.566;2023-07-22T00:52:57;11.13;;;4.65;;
64110;SDS011;50401;48.188;11.566;2023-07-22T00:55:23;9.70;;;4.90;;
64110;SDS011;50401;48.188;11.566;2023-07-22T00:57:50;15.50;;;4.78;;
64110;SDS011;50401;48.188;11.566;2023-07-22T01:00:15;10.35;;;4.85;;
64110;SDS011;50401;48.188;11.566;2023-07-22T01:02:41;11.05;;;4.72;;
64110;SDS011;50401;48.188;11.566;2023-07-22T01:05:08;10.88;;;4.63;;
64110;SDS011;50401;48.188;11.566;2023-07-22T01:07:35;13.70;;;4.90;;
64110;SDS011;50401;48.188;11.566;2023-07-22T01:10:01;11.80;;;4.82;;
64110;SDS011;50401;48.188;11.566;2023-07-22T01:12:28;8.93;;;4.70;;
64110;SDS011;50401;48.188;11.566;2023-07-22T01:14:53;12.68;;;4.85;;
64110;SDS011;50401;48.188;11.566;2023-07-22T01:17:19;16.13;;;5.22;;
64110;SDS011;50401;48.188;11.566;2023-07-22T01:19:45;7.90;;;4.93;;
64110;SDS011;50401;48.188;11.566;2023-07-22T01:22:12;11.57;;;6.18;;
64110;SDS011;50401;48.188;11.566;2023-07-22T01:24:38;8.85;;;5.55;;
64110;SDS011;50401;48.188;11.566;2023-07-22T01:27:06;11.45;;;7.22;;
64110;SDS011;50401;48.188;11.566;2023-07-22T01:29:34;19.75;;;11.27;;
64110;SDS011;50401;48.188;11.566;2023-07-22T01:32:00;16.83;;;12.98;;
64110;SDS011;50401;48.188;11.566;2023-07-22T01:34:26;16.40;;;12.70;;
64110;SDS011;50401;48.188;11.566;2023-07-22T01:36:51;14.52;;;8.48;;
64110;SDS011;50401;48.188;11.566;2023-07-22T01:39:17;10.80;;;7.47;;
64110;SDS011;50401;48.188;11.566;2023-07-22T01:41:47;10.32;;;5.10;;
64110;SDS011;50401;48.188;11.566;2023-07-22T01:44:13;12.60;;;4.45;;
64110;SDS011;50401;48.188;11.566;2023-07-22T01:46:39;11.35;;;6.22;;
64110;SDS011;50401;48.188;11.566;2023-07-22T01:49:05;9.98;;;6.22;;
64110;SDS011;50401;48.188;11.566;2023-07-22T01:51:33;13.52;;;6.35;;
64110;SDS011;50401;48.188;11.566;2023-07-22T01:53:59;15.35;;;8.32;;
64110;SDS011;50401;48.188;11.566;2023-07-22T01:56:24;23.20;;;9.18;;
64110;SDS011;50401;48.188;11.566;2023-07-22T01:58:50;17.42;;;9.20;;
64110;SDS011;50401;48.188;11.566;2023-07-22T02:01:15;18.30;;;8.32;;
64110;SDS011;50401;48.188;11.566;2023-07-22T02:03:41;15.82;;;7.18;;
64110;SDS011;50401;48.188;11.566;2023-07-22T02:06:10;13.80;;;7.30;;
64110;SDS011;50401;48.188;11.566;2023-07-22T02:08:35;14.32;;;7.10;;
64110;SDS011;50401;48.188;11.566;2023-07-22T02:11:01;15.25;;;6.60;;
64110;SDS011;50401;48.188;11.566;2023-07-22T02:13:29;13.10;;;6.30;;
64110;SDS011;50401;48.188;11.566;2023-07-22T02:15:55;14.20;;;6.85;;
64110;SDS011;50401;48.188;11.566;2023-07-22T02:18:20;13.73;;;6.88;;
64110;SDS011;50401;48.188;11.566;2023-07-22T02:20:46;13.52;;;7.50;;
64110;SDS011;50401;48.188;11.566;2023-07-22T02:23:11;17.73;;;7.68;;
64110;SDS011;50401;48.188;11.566;2023-07-22T02:25:37;12.55;;;8.23;;
64110;SDS011;50401;48.188;11.566;2023-07-22T02:28:03;13.95;;;7.47;;
64110;SDS011;50401;48.188;11.566;2023-07-22T02:30:28;12.43;;;7.05;;
64110;SDS011;50401;48.188;11.566;2023-07-22T02:32:54;14.45;;;7.15;;
64110;SDS011;50401;48.188;11.566;2023-07-22T02:35:19;13.52;;;6.93;;
64110;SDS011;50401;48.188;11.566;2023-07-22T02:37:45;12.93;;;7.00;;
64110;SDS011;50401;48.188;11.566;2023-07-22T02:40:10;11.95;;;6.68;;
64110;SDS011;50401;48.188;11.566;2023-07-22T02:42:39;12.40;;;7.30;;
64110;SDS011;50401;48.188;11.566;2023-07-22T02:45:05;11.52;;;5.85;;
64110;SDS011;50401;48.188;11.566;2023-07-22T02:47:33;11.05;;;7.10;;
64110;SDS011;50401;48.188;11.566;2023-07-22T02:49:59;17.25;;;6.95;;
64110;SDS011;50401;48.188;11.566;2023-07-22T02:52:25;10.52;;;6.38;;
64110;SDS011;50401;48.188;11.566;2023-07-22T02:55:10;11.70;;;7.15;;
64110;SDS011;50401;48.188;11.566;2023-07-22T02:57:38;17.23;;;8.38;;
64110;SDS011;50401;48.188;11.566;2023-07-22T03:00:05;20.10;;;9.90;;
64110;SDS011;50401;48.188;11.566;2023-07-22T03:02:43;18.17;;;8.82;;
64110;SDS011;50401;48.188;11.566;2023-07-22T03:05:08;15.80;;;8.57;;
64110;SDS011;50401;48.188;11.566;2023-07-22T03:07:35;16.52;;;8.85;;
64110;SDS011;50401;48.188;11.566;2023-07-22T03:10:04;18.58;;;8.30;;
64110;SDS011;50401;48.188;11.566;2023-07-22T03:12:31;16.90;;;8.32;;
64110;SDS011;50401;48.188;11.566;2023-07-22T03:14:57;11.40;;;7.88;;
64110;SDS011;50401;48.188;11.566;2023-07-22T03:17:23;16.52;;;7.43;;
64110;SDS011;50401;48.188;11.566;2023-07-22T03:19:49;9.60;;;5.82;;
64110;SDS011;50401;48.188;11.566;2023-07-22T03:22:15;16.33;;;6.70;;
64110;SDS011;50401;48.188;11.566;2023-07-22T03:24:41;13.80;;;6.03;;
64110;SDS011;50401;48.188;11.566;2023-07-22T03:27:07;14.25;;;6.28;;
64110;SDS011;50401;48.188;11.566;2023-07-22T03:29:32;20.58;;;7.55;;
64110;SDS011;50401;48.188;11.566;2023-07-22T03:31:58;23.23;;;7.68;;
64110;SDS011;50401;48.188;11.566;2023-07-22T03:34:25;17.40;;;7.68;;
64110;SDS011;50401;48.188;11.566;2023-07-22T03:36:53;13.90;;;7.88;;
64110;SDS011;50401;48.188;11.566;2023-07-22T03:39:19;16.48;;;7.70;;
64110;SDS011;50401;48.188;11.566;2023-07-22T03:41:45;14.45;;;7.20;;
64110;SDS011;50401;48.188;11.566;2023-07-22T03:44:10;10.57;;;6.90;;
64110;SDS011;50401;48.188;11.566;2023-07-22T03:46:36;17.88;;;6.60;;
64110;SDS011;50401;48.188;11.566;2023-07-22T03:49:02;11.68;;;6.45;;
64110;SDS011;50401;48.188;11.566;2023-07-22T03:51:27;15.65;;;6.72;;
64110;SDS011;50401;48.188;11.566;2023-07-22T03:53:53;15.35;;;6.22;;
64110;SDS011;50401;48.188;11.566;2023-07-22T03:56:18;10.65;;;6.38;;
64110;SDS011;50401;48.188;11.566;2023-07-22T03:58:45;12.65;;;6.22;;
64110;SDS011;50401;48.188;11.566;2023-07-22T04:01:13;14.45;;;7.50;;
64110;SDS011;50401;48.188;11.566;2023-07-22T04:03:39;13.00;;;6.88;;
64110;SDS011;50401;48.188;11.566;2023-07-22T04:06:04;18.52;;;7.20;;
64110;SDS011;50401;48.188;11.566;2023-07-22T04:08:30;13.15;;;7.18;;
64110;SDS011;50401;48.188;11.566;2023-07-22T04:10:55;17.15;;;7.05;;
64110;SDS011;50401;48.188;11.566;2023-07-22T04:13:22;10.15;;;6.55;;
64110;SDS011;50401;48.188;11.566;2023-07-22T04:15:48;13.00;;;6.30;;
64110;SDS011;50401;48.188;11.566;2023-07-22T04:18:14;9.27;;;5.88;;
64110;SDS011;50401;48.188;11.566;2023-07-22T04:20:41;12.43;;;5.88;;
64110;SDS011;50401;48.188;11.566;2023-07-22T04:23:06;10.25;;;5.57;;
64110;SDS011;50401;48.188;11.566;2023-07-22T04:25:32;10.75;;;5.82;;
64110;SDS011;50401;48.188;11.566;2023-07-22T04:27:57;8.63;;;5.97;;
64110;SDS011;50401;48.188;11.566;2023-07-22T04:30:23;12.13;;;6.22;;
64110;SDS011;50401;48.188;11.566;2023-07-22T04:32:49;11.20;;;6.30;;
64110;SDS011;50401;48.188;11.566;2023-07-22T04:35:15;11.88;;;5.88;;
64110;SDS011;50401;48.188;11.566;2023-07-22T04:37:44;13.93;;;6.45;;
64110;SDS011;50401;48.188;11.566;2023-07-22T04:40:13;17.35;;;5.65;;
64110;SDS011;50401;48.188;11.566;2023-07-22T04:42:43;19.30;;;6.20;;
64110;SDS011;50401;48.188;11.566;2023-07-22T04:45:10;15.27;;;5.63;;
64110;SDS011;50401;48.188;11.566;2023-07-22T04:47:36;11.32;;;5.68;;
64110;SDS011;50401;48.188;11.566;2023-07-22T04:50:06;12.48;;;4.80;;
64110;SDS011;50401;48.188;11.566;2023-07-22T04:52:34;13.98;;;5.13;;
64110;SDS011;50401;48.188;11.566;2023-07-22T04:55:00;19.92;;;4.60;;
64110;SDS011;50401;48.188;11.566;2023-07-22T04:57:33;11.52;;;5.38;;
64110;SDS011;50401;48.188;11.566;2023-07-22T04:59:59;12.63;;;4.70;;
64110;SDS011;50401;48.188;11.566;2023-07-22T05:02:24;6.55;;;4.30;;
64110;SDS011;50401;48.188;11.566;2023-07-22T05:04:50;19.58;;;5.00;;
64110;SDS011;50401;48.188;11.566;2023-07-22T05:07:15;11.40;;;4.65;;
64110;SDS011;50401;48.188;11.566;2023-07-22T05:09:40;9.35;;;4.50;;
64110;SDS011;50401;48.188;11.566;2023-07-22T05:12:06;11.05;;;4.43;;
64110;SDS011;50401;48.188;11.566;2023-07-22T05:14:32;10.50;;;4.72;;
64110;SDS011;50401;48.188;11.566;2023-07-22T05:16:57;10.82;;;4.78;;
64110;SDS011;50401;48.188;11.566;2023-07-22T05:19:23;12.77;;;4.97;;
64110;SDS011;50401;48.188;11.566;2023-07-22T05:21:48;10.82;;;5.25;;
64110;SDS011;50401;48.188;11.566;2023-07-22T05:24:14;14.38;;;5.22;;
64110;SDS011;50401;48.188;11.566;2023-07-22T05:26:39;11.60;;;4.03;;
64110;SDS011;50401;48.188;11.566;2023-07-22T05:29:04;11.25;;;4.50;;
64110;SDS011;50401;48.188;11.566;2023-07-22T05:31:30;10.10;;;4.47;;
64110;SDS011;50401;48.188;11.566;2023-07-22T05:33:56;12.60;;;4.40;;
64110;SDS011;50401;48.188;11.566;2023-07-22T05:36:21;8.75;;;3.85;;
64110;SDS011;50401;48.188;11.566;2023-07-22T05:38:47;9.27;;;5.25;;
64110;SDS011;50401;48.188;11.566;2023-07-22T05:41:12;9.18;;;4.50;;
64110;SDS011;50401;48.188;11.566;2023-07-22T05:43:38;17.63;;;4.55;;
64110;SDS011;50401;48.188;11.566;2023-07-22T05:46:03;5.63;;;3.80;;
64110;SDS011;50401;48.188;11.566;2023-07-22T05:48:28;8.00;;;3.90;;
64110;SDS011;50401;48.188;11.566;2023-07-22T05:50:54;9.70;;;4.22;;
64110;SDS011;50401;48.188;11.566;2023-07-22T05:53:20;10.80;;;4.10;;
64110;SDS011;50401;48.188;11.566;2023-07-22T05:55:45;13.98;;;4.78;;
64110;SDS011;50401;48.188;11.566;2023-07-22T05:58:17;8.95;;;4.65;;
64110;SDS011;50401;48.188;11.566;2023-07-22T06:00:43;9.20;;;4.18;;
64110;SDS011;50401;48.188;11.566;2023-07-22T06:03:09;9.75;;;4.18;;
64110;SDS011;50401;48.188;11.566;2023-07-22T06:08:14;8.75;;;3.70;;
64110;SDS011;50401;48.188;11.566;2023-07-22T06:10:39;11.88;;;4.05;;
64110;SDS011;50401;48.188;11.566;2023-07-22T06:13:05;17.08;;;4.53;;
64110;SDS011;50401;48.188;11.566;2023-07-22T06:15:31;11.90;;;3.95;;
64110;SDS011;50401;48.188;11.566;2023-07-22T06:17:58;11.50;;;4.13;;
64110;SDS011;50401;48.188;11.566;2023-07-22T06:20:24;5.32;;;3.33;;
64110;SDS011;50401;48.188;11.566;2023-07-22T06:22:50;8.85;;;3.78;;
64110;SDS011;50401;48.188;11.566;2023-07-22T06:25:15;12.48;;;3.50;;
64110;SDS011;50401;48.188;11.566;2023-07-22T06:27:41;6.72;;;3.60;;
64110;SDS011;50401;48.188;11.566;2023-07-22T06:30:07;12.27;;;4.28;;
64110;SDS011;50401;48.188;11.566;2023-07-22T06:32:33;7.22;;;3.63;;
64110;SDS011;50401;48.188;11.566;2023-07-22T06:34:59;9.70;;;3.85;;
64110;SDS011;50401;48.188;11.566;2023-07-22T06:37:25;7.93;;;3.70;;
64110;SDS011;50401;48.188;11.566;2023-07-22T06:39:51;13.98;;;3.40;;
64110;SDS011;50401;48.188;11.566;2023-07-22T06:42:16;7.32;;;3.42;;
64110;SDS011;50401;48.188;11.566;2023-07-22T06:44:42;7.05;;;3.50;;
64110;SDS011;50401;48.188;11.566;2023-07-22T06:47:08;9.27;;;3.88;;
64110;SDS011;50401;48.188;11.566;2023-07-22T06:49:34;5.20;;;3.30;;
64110;SDS011;50401;48.188;11.566;2023-07-22T06:51:59;6.18;;;3.22;;
64110;SDS011;50401;48.188;11.566;2023-07-22T06:54:28;6.78;;;3.67;;
64110;SDS011;50401;48.188;11.566;2023-07-22T06:56:54;9.68;;;3.88;;
64110;SDS011;50401;48.188;11.566;2023-07-22T06:59:20;11.85;;;3.75;;
64110;SDS011;50401;48.188;11.566;2023-07-22T07:01:45;9.50;;;4.15;;
64110;SDS011;50401;48.188;11.566;2023-07-22T07:04:11;9.88;;;3.75;;
64110;SDS011;50401;48.188;11.566;2023-07-22T07:06:36;7.10;;;3.42;;
64110;SDS011;50401;48.188;11.566;2023-07-22T07:09:03;9.48;;;4.20;;
64110;SDS011;50401;48.188;11.566;2023-07-22T07:11:29;16.42;;;3.95;;
64110;SDS011;50401;48.188;11.566;2023-07-22T07:13:55;11.57;;;3.72;;
64110;SDS011;50401;48.188;11.566;2023-07-22T07:16:25;10.05;;;4.18;;
64110;SDS011;50401;48.188;11.566;2023-07-22T07:18:53;6.70;;;3.13;;
64110;SDS011;50401;48.188;11.566;2023-07-22T07:21:20;5.75;;;3.20;;
64110;SDS011;50401;48.188;11.566;2023-07-22T07:23:46;11.15;;;3.22;;
64110;SDS011;50401;48.188;11.566;2023-07-22T07:26:12;11.60;;;3.22;;
64110;SDS011;50401;48.188;11.566;2023-07-22T07:28:38;6.80;;;3.13;;
64110;SDS011;50401;48.188;11.566;2023-07-22T07:31:04;11.52;;;3.25;;
64110;SDS011;50401;48.188;11.566;2023-07-22T07:33:30;10.98;;;3.40;;
64110;SDS011;50401;48.188;11.566;2023-07-22T07:35:55;13.57;;;3.20;;
64110;SDS011;50401;48.188;11.566;2023-07-22T07:38:21;10.05;;;3.70;;
64110;SDS011;50401;48.188;11.566;2023-07-22T07:40:46;7.63;;;3.72;;
64110;SDS011;50401;48.188;11.566;2023-07-22T07:43:26;11.75;;;3.55;;
64110;SDS011;50401;48.188;11.566;2023-07-22T07:46:11;9.32;;;3.72;;
64110;SDS011;50401;48.188;11.566;2023-07-22T07:48:37;11.27;;;3.80;;
64110;SDS011;50401;48.188;11.566;2023-07-22T07:51:02;8.88;;;3.40;;
64110;SDS011;50401;48.188;11.566;2023-07-22T07:53:28;11.85;;;3.55;;
64110;SDS011;50401;48.188;11.566;2023-07-22T07:55:53;8.43;;;3.83;;
64110;SDS011;50401;48.188;11.566;2023-07-22T07:58:19;7.93;;;3.38;;
64110;SDS011;50401;48.188;11.566;2023-07-22T08:00:44;7.47;;;3.80;;
64110;SDS011;50401;48.188;11.566;2023-07-22T08:03:10;6.70;;;2.88;;
64110;SDS011;50401;48.188;11.566;2023-07-22T08:05:35;7.18;;;2.72;;
64110;SDS011;50401;48.188;11.566;2023-07-22T08:08:01;11.98;;;2.90;;
64110;SDS011;50401;48.188;11.566;2023-07-22T08:10:26;7.93;;;2.90;;
64110;SDS011;50401;48.188;11.566;2023-07-22T08:12:52;7.80;;;3.47;;
64110;SDS011;50401;48.188;11.566;2023-07-22T08:15:17;8.98;;;3.70;;
64110;SDS011;50401;48.188;11.566;2023-07-22T08:17:43;7.80;;;3.30;;
64110;SDS011;50401;48.188;11.566;2023-07-22T08:20:08;11.20;;;3.42;;
64110;SDS011;50401;48.188;11.566;2023-07-22T08:22:35;16.27;;;3.63;;
64110;SDS011;50401;48.188;11.566;2023-07-22T08:25:01;14.93;;;3.63;;
64110;SDS011;50401;48.188;11.566;2023-07-22T08:27:26;9.57;;;3.22;;
64110;SDS011;50401;48.188;11.566;2023-07-22T08:29:52;8.95;;;3.10;;
64110;SDS011;50401;48.188;11.566;2023-07-22T08:32:17;6.85;;;2.88;;
64110;SDS011;50401;48.188;11.566;2023-07-22T08:34:43;11.38;;;3.33;;
64110;SDS011;50401;48.188;11.566;2023-07-22T08:37:09;9.85;;;3.85;;
64110;SDS011;50401;48.188;11.566;2023-07-22T08:39:34;9.20;;;3.60;;
64110;SDS011;50401;48.188;11.566;2023-07-22T08:42:00;10.68;;;3.60;;
64110;SDS011;50401;48.188;11.566;2023-07-22T08:44:29;8.85;;;2.92;;
64110;SDS011;50401;48.188;11.566;2023-07-22T08:47:01;9.82;;;3.70;;
64110;SDS011;50401;48.188;11.566;2023-07-22T08:51:55;8.82;;;3.30;;
64110;SDS011;50401;48.188;11.566;2023-07-22T08:54:23;9.43;;;3.00;;
64110;SDS011;50401;48.188;11.566;2023-07-22T08:56:49;6.28;;;2.95;;
64110;SDS011;50401;48.188;11.566;2023-07-22T08:59:16;4.18;;;2.58;;
64110;SDS011;50401;48.188;11.566;2023-07-22T09:01:43;5.22;;;2.42;;
64110;SDS011;50401;48.188;11.566;2023-07-22T09:04:09;4.57;;;2.95;;
64110;SDS011;50401;48.188;11.566;2023-07-22T09:06:34;7.82;;;3.13;;
64110;SDS011;50401;48.188;11.566;2023-07-22T09:09:01;7.03;;;2.80;;
64110;SDS011;50401;48.188;11.566;2023-07-22T09:11:32;7.68;;;2.90;;
64110;SDS011;50401;48.188;11.566;2023-07-22T09:13:58;6.85;;;2.92;;
64110;SDS011;50401;48.188;11.566;2023-07-22T09:16:25;5.18;;;2.70;;
64110;SDS011;50401;48.188;11.566;2023-07-22T09:18:54;7.93;;;2.80;;
64110;SDS011;50401;48.188;11.566;2023-07-22T09:21:21;9.60;;;2.78;;
64110;SDS011;50401;48.188;11.566;2023-07-22T09:23:46;9.02;;;2.78;;
64110;SDS011;50401;48.188;11.566;2023-07-22T09:26:13;9.80;;;2.30;;
64110;SDS011;50401;48.188;11.566;2023-07-22T09:31:14;5.03;;;2.65;;
64110;SDS011;50401;48.188;11.566;2023-07-22T09:33:40;5.80;;;2.72;;
64110;SDS011;50401;48.188;11.566;2023-07-22T09:36:06;11.25;;;2.60;;
64110;SDS011;50401;48.188;11.566;2023-07-22T09:38:31;16.40;;;2.75;;
64110;SDS011;50401;48.188;11.566;2023-07-22T09:40:57;8.73;;;2.97;;
64110;SDS011;50401;48.188;11.566;2023-07-22T09:43:22;10.23;;;4.75;;
64110;SDS011;50401;48.188;11.566;2023-07-22T09:45:48;10.50;;;2.88;;
64110;SDS011;50401;48.188;11.566;2023-07-22T09:48:14;5.03;;;2.80;;
64110;SDS011;50401;48.188;11.566;2023-07-22T09:50:39;6.82;;;3.25;;
64110;SDS011;50401;48.188;11.566;2023-07-22T09:53:05;9.63;;;2.92;;
64110;SDS011;50401;48.188;11.566;2023-07-22T09:55:31;6.20;;;2.55;;
64110;SDS011;50401;48.188;11.566;2023-07-22T09:58:01;4.55;;;3.00;;
64110;SDS011;50401;48.188;11.566;2023-07-22T10:00:32;11.27;;;3.08;;
64110;SDS011;50401;48.188;11.566;2023-07-22T10:02:59;6.43;;;3.05;;
64110;SDS011;50401;48.188;11.566;2023-07-22T10:05:26;5.30;;;2.85;;
64110;SDS011;50401;48.188;11.566;2023-07-22T10:07:57;5.00;;;2.40;;
64110;SDS011;50401;48.188;11.566;2023-07-22T10:10:26;7.30;;;2.70;;
64110;SDS011;50401;48.188;11.566;2023-07-22T10:12:55;4.40;;;2.65;;
64110;SDS011;50401;48.188;11.566;2023-07-22T10:15:22;7.15;;;2.88;;
64110;SDS011;50401;48.188;11.566;2023-07-22T10:17:50;6.18;;;2.83;;
64110;SDS011;50401;48.188;11.566;2023-07-22T10:20:16;5.47;;;2.40;;
64110;SDS011;50401;48.188;11.566;2023-07-22T10:25:17;7.55;;;2.90;;
64110;SDS011;50401;48.188;11.566;2023-07-22T10:27:44;3.83;;;2.88;;
64110;SDS011;50401;48.188;11.566;2023-07-22T10:30:10;8.95;;;2.90;;
64110;SDS011;50401;48.188;11.566;2023-07-22T10:32:38;7.30;;;2.47;;
64110;SDS011;50401;48.188;11.566;2023-07-22T10:37:35;7.82;;;2.50;;
64110;SDS011;50401;48.188;11.566;2023-07-22T10:42:53;14.95;;;2.63;;
64110;SDS011;50401;48.188;11.566;2023-07-22T10:45:24;6.95;;;3.08;;
64110;SDS011;50401;48.188;11.566;2023-07-22T10:48:07;7.47;;;3.27;;
64110;SDS011;50401;48.188;11.566;2023-07-22T10:50:40;5.25;;;2.63;;
64110;SDS011;50401;48.188;11.566;2023-07-22T10:53:50;4.85;;;3.00;;
64110;SDS011;50401;48.188;11.566;2023-07-22T10:56:19;8.73;;;3.42;;
64110;SDS011;50401;48.188;11.566;2023-07-22T11:11:55;10.27;;;4.18;;
64110;SDS011;50401;48.188;11.566;2023-07-22T11:14:41;10.45;;;2.83;;
64110;SDS011;50401;48.188;11.566;2023-07-22T11:17:10;5.35;;;3.20;;
64110;SDS011;50401;48.188;11.566;2023-07-22T11:19:36;6.30;;;3.33;;
64110;SDS011;50401;48.188;11.566;2023-07-22T11:22:02;5.55;;;2.85;;
64110;SDS011;50401;48.188;11.566;2023-07-22T11:24:29;9.70;;;3.35;;
64110;SDS011;50401;48.188;11.566;2023-07-22T11:26:54;5.40;;;2.67;;
64110;SDS011;50401;48.188;11.566;2023-07-22T11:29:21;12.52;;;3.40;;
64110;SDS011;50401;48.188;11.566;2023-07-22T11:31:47;8.98;;;3.20;;
64110;SDS011;50401;48.188;11.566;2023-07-22T11:34:21;5.33;;;2.73;;
64110;SDS011;50401;48.188;11.566;2023-07-22T11:36:48;11.15;;;3.20;;
64110;SDS011;50401;48.188;11.566;2023-07-22T11:39:16;9.13;;;3.00;;
64110;SDS011;50401;48.188;11.566;2023-07-22T11:41:43;7.60;;;3.63;;
64110;SDS011;50401;48.188;11.566;2023-07-22T11:44:10;8.02;;;3.58;;
64110;SDS011;50401;48.188;11.566;2023-07-22T11:47:11;8.02;;;3.03;;
64110;SDS011;50401;48.188;11.566;2023-07-22T11:49:39;10.23;;;3.17;;
64110;SDS011;50401;48.188;11.566;2023-07-22T11:52:07;10.23;;;4.13;;
64110;SDS011;50401;48.188;11.566;2023-07-22T11:54:43;7.73;;;3.00;;
64110;SDS011;50401;48.188;11.566;2023-07-22T11:59:39;8.30;;;3.40;;
64110;SDS011;50401;48.188;11.566;2023-07-22T12:02:12;5.45;;;2.58;;
64110;SDS011;50401;48.188;11.566;2023-07-22T12:04:38;6.32;;;2.97;;
64110;SDS011;50401;48.188;11.566;2023-07-22T12:07:04;8.02;;;3.15;;
64110;SDS011;50401;48.188;11.566;2023-07-22T12:09:30;3.83;;;2.58;;
64110;SDS011;50401;48.188;11.566;2023-07-22T12:11:56;5.32;;;2.67;;
64110;SDS011;50401;48.188;11.566;2023-07-22T12:14:23;7.00;;;3.37;;
64110;SDS011;50401;48.188;11.566;2023-07-22T12:16:52;4.43;;;2.78;;
64110;SDS011;50401;48.188;11.566;2023-07-22T12:19:23;7.07;;;2.85;;
64110;SDS011;50401;48.188;11.566;2023-07-22T12:21:49;7.38;;;3.00;;
64110;SDS011;50401;48.188;11.566;2023-07-22T12:24:14;6.25;;;2.60;;
64110;SDS011;50401;48.188;11.566;2023-07-22T12:26:40;8.20;;;2.85;;
64110;SDS011;50401;48.188;11.566;2023-07-22T12:29:07;5.43;;;2.65;;
64110;SDS011;50401;48.188;11.566;2023-07-22T12:31:33;4.78;;;2.88;;
64110;SDS011;50401;48.188;11.566;2023-07-22T12:33:59;6.68;;;3.08;;
64110;SDS011;50401;48.188;11.566;2023-07-22T12:36:24;11.98;;;3.10;;
64110;SDS011;50401;48.188;11.566;2023-07-22T12:38:50;7.70;;;2.90;;
64110;SDS011;50401;48.188;11.566;2023-07-22T12:41:15;6.65;;;2.78;;
64110;SDS011;50401;48.188;11.566;2023-07-22T12:43:41;6.95;;;4.25;;
64110;SDS011;50401;48.188;11.566;2023-07-22T12:46:06;4.65;;;2.97;;
64110;SDS011;50401;48.188;11.566;2023-07-22T12:48:31;9.40;;;4.28;;
64110;SDS011;50401;48.188;11.566;2023-07-22T12:50:57;8.77;;;3.42;;
64110;SDS011;50401;48.188;11.566;2023-07-22T12:53:22;7.63;;;3.08;;
64110;SDS011;50401;48.188;11.566;2023-07-22T12:55:48;10.50;;;3.58;;
64110;SDS011;50401;48.188;11.566;2023-07-22T12:58:13;7.43;;;3.22;;
64110;SDS011;50401;48.188;11.566;2023-07-22T13:00:39;10.20;;;3.60;;
64110;SDS011;50401;48.188;11.566;2023-07-22T13:03:04;8.10;;;3.17;;
64110;SDS011;50401;48.188;11.566;2023-07-22T13:05:30;7.47;;;4.13;;
64110;SDS011;50401;48.188;11.566;2023-07-22T13:07:56;5.57;;;2.85;;
64110;SDS011;50401;48.188;11.566;2023-07-22T13:10:26;7.60;;;3.42;;
64110;SDS011;50401;48.188;11.566;2023-07-22T13:12:54;7.25;;;3.47;;
64110;SDS011;50401;48.188;11.566;2023-07-22T13:15:19;7.85;;;3.60;;
64110;SDS011;50401;48.188;11.566;2023-07-22T13:17:45;7.47;;;3.00;;
64110;SDS011;50401;48.188;11.566;2023-07-22T13:20:10;31.15;;;3.67;;
64110;SDS011;50401;48.188;11.566;2023-07-22T13:22:37;16.90;;;3.47;;
64110;SDS011;50401;48.188;11.566;2023-07-22T13:25:03;6.50;;;3.20;;
64110;SDS011;50401;48.188;11.566;2023-07-22T13:27:29;6.65;;;3.20;;
64110;SDS011;50401;48.188;11.566;2023-07-22T13:29:54;5.60;;;2.67;;
64110;SDS011;50401;48.188;11.566;2023-07-22T13:32:19;11.02;;;3.75;;
64110;SDS011;50401;48.188;11.566;2023-07-22T13:34:45;11.48;;;3.10;;
64110;SDS011;50401;48.188;11.566;2023-07-22T13:37:11;7.75;;;2.83;;
64110;SDS011;50401;48.188;11.566;2023-07-22T13:39:36;8.35;;;3.60;;
64110;SDS011;50401;48.188;11.566;2023-07-22T13:42:02;3.75;;;2.42;;
64110;SDS011;50401;48.188;11.566;2023-07-22T13:44:27;4.82;;;2.70;;
64110;SDS011;50401;48.188;11.566;2023-07-22T13:46:53;8.48;;;3.33;;
64110;SDS011;50401;48.188;11.566;2023-07-22T13:49:18;6.55;;;2.92;;
64110;SDS011;50401;48.188;11.566;2023-07-22T13:51:43;7.70;;;3.40;;
64110;SDS011;50401;48.188;11.566;2023-07-22T13:54:09;12.80;;;3.70;;
64110;SDS011;50401;48.188;11.566;2023-07-22T13:56:34;5.50;;;3.30;;
64110;SDS011;50401;48.188;11.566;2023-07-22T13:59:00;9.98;;;4.43;;
64110;SDS011;50401;48.188;11.566;2023-07-22T14:01:28;10.38;;;3.50;;
64110;SDS011;50401;48.188;11.566;2023-07-22T14:03:53;7.07;;;3.65;;
64110;SDS011;50401;48.188;11.566;2023-07-22T14:06:19;7.10;;;3.47;;
64110;SDS011;50401;48.188;11.566;2023-07-22T14:08:45;9.63;;;3.75;;
64110;SDS011;50401;48.188;11.566;2023-07-22T14:11:10;8.00;;;3.40;;
64110;SDS011;50401;48.188;11.566;2023-07-22T14:13:35;6.57;;;3.72;;
64110;SDS011;50401;48.188;11.566;2023-07-22T14:16:02;9.50;;;3.88;;
64110;SDS011;50401;48.188;11.566;2023-07-22T14:18:28;7.93;;;3.55;;
64110;SDS011;50401;48.188;11.566;2023-07-22T14:20:54;7.78;;;4.07;;
64110;SDS011;50401;48.188;11.566;2023-07-22T14:23:19;12.65;;;4.03;;
64110;SDS011;50401;48.188;11.566;2023-07-22T14:25:44;8.60;;;4.25;;
64110;SDS011;50401;48.188;11.566;2023-07-22T14:28:10;12.43;;;3.75;;
64110;SDS011;50401;48.188;11.566;2023-07-22T14:30:35;8.05;;;3.65;;
64110;SDS011;50401;48.188;11.566;2023-07-22T14:33:00;9.07;;;3.92;;
64110;SDS011;50401;48.188;11.566;2023-07-22T14:35:26;8.48;;;4.25;;
64110;SDS011;50401;48.188;11.566;2023-07-22T14:37:51;9.40;;;3.55;;
64110;SDS011;50401;48.188;11.566;2023-07-22T14:40:17;15.88;;;4.32;;
64110;SDS011;50401;48.188;11.566;2023-07-22T14:42:42;14.65;;;6.47;;
64110;SDS011;50401;48.188;11.566;2023-07-22T14:45:08;8.30;;;4.07;;
64110;SDS011;50401;48.188;11.566;2023-07-22T14:47:34;9.68;;;5.63;;
64110;SDS011;50401;48.188;11.566;2023-07-22T14:50:00;10.73;;;4.15;;
64110;SDS011;50401;48.188;11.566;2023-07-22T14:52:25;8.10;;;4.07;;
64110;SDS011;50401;48.188;11.566;2023-07-22T14:54:50;10.52;;;3.53;;
64110;SDS011;50401;48.188;11.566;2023-07-22T14:57:16;5.78;;;3.25;;